sensor_id;sensor_type;location;lat;lon;timestamp;temperature;humidity
1381;DHT22;684;48.342;10.096;2023-11-19T00:02:25;8.10;33.10
1381;DHT22;684;48.342;10.096;2023-11-19T00:04:52;8.20;33.20
1381;DHT22;684;48.342;10.096;2023-11-19T00:07:21;8.20;33.30
1381;DHT22;684;48.342;10.096;2023-11-19T00:09:47;8.20;33.30
1381;DHT22;684;48.342;10.096;2023-11-19T00:12:15;8.20;33.60
1381;DHT22;684;48.342;10.096;2023-11-19T00:14:42;8.20;33.60
1381;DHT22;684;48.342;10.096;2023-11-19T00:17:09;8.20;33.80
1381;DHT22;684;48.342;10.096;2023-11-19T00:19:36;8.20;33.90
1381;DHT22;684;48.342;10.096;2023-11-19T00:22:03;8.20;34.00
1381;DHT22;684;48.342;10.096;2023-11-19T00:24:31;8.20;34.10
1381;DHT22;684;48.342;10.096;2023-11-19T00:26:58;8.20;34.10
1381;DHT22;684;48.342;10.096;2023-11-19T00:29:24;8.20;34.30
1381;DHT22;684;48.342;10.096;2023-11-19T00:31:51;8.20;34.40
1381;DHT22;684;48.342;10.096;2023-11-19T00:34:18;8.30;34.50
1381;DHT22;684;48.342;10.096;2023-11-19T00:36:48;8.30;34.70
1381;DHT22;684;48.342;10.096;2023-11-19T00:39:15;8.30;34.80
1381;DHT22;684;48.342;10.096;2023-11-19T00:41:43;8.30;34.90
1381;DHT22;684;48.342;10.096;2023-11-19T00:44:11;8.30;35.00
1381;DHT22;684;48.342;10.096;2023-11-19T00:46:38;8.30;35.10
1381;DHT22;684;48.342;10.096;2023-11-19T00:49:05;8.30;35.20
1381;DHT22;684;48.342;10.096;2023-11-19T00:51:31;8.30;35.40
1381;DHT22;684;48.342;10.096;2023-11-19T00:53:58;8.30;35.60
1381;DHT22;684;48.342;10.096;2023-11-19T00:56:26;8.30;35.70
1381;DHT22;684;48.342;10.096;2023-11-19T00:58:55;8.40;35.60
1381;DHT22;684;48.342;10.096;2023-11-19T01:01:22;8.40;35.80
1381;DHT22;684;48.342;10.096;2023-11-19T01:03:49;8.40;35.90
1381;DHT22;684;48.342;10.096;2023-11-19T01:06:26;8.40;36.00
1381;DHT22;684;48.342;10.096;2023-11-19T01:08:53;8.40;36.30
1381;DHT22;684;48.342;10.096;2023-11-19T01:11:20;8.40;36.00
1381;DHT22;684;48.342;10.096;2023-11-19T01:13:47;8.40;36.20
1381;DHT22;684;48.342;10.096;2023-11-19T01:16:16;8.40;36.40
1381;DHT22;684;48.342;10.096;2023-11-19T01:18:43;8.40;36.40
1381;DHT22;684;48.342;10.096;2023-11-19T01:21:10;8.40;36.50
1381;DHT22;684;48.342;10.096;2023-11-19T01:23:36;8.40;36.60
1381;DHT22;684;48.342;10.096;2023-11-19T01:26:04;8.50;36.80
1381;DHT22;684;48.342;10.096;2023-11-19T01:28:31;8.50;37.00
1381;DHT22;684;48.342;10.096;2023-11-19T01:30:58;8.50;37.20
1381;DHT22;684;48.342;10.096;2023-11-19T01:33:26;8.50;37.20
1381;DHT22;684;48.342;10.096;2023-11-19T01:35:53;8.50;37.40
1381;DHT22;684;48.342;10.096;2023-11-19T01:38:20;8.50;37.50
1381;DHT22;684;48.342;10.096;2023-11-19T01:40:46;8.50;37.60
1381;DHT22;684;48.342;10.096;2023-11-19T01:43:31;8.50;37.80
1381;DHT22;684;48.342;10.096;2023-11-19T01:45:58;8.50;38.00
1381;DHT22;684;48.342;10.096;2023-11-19T01:48:27;8.60;37.90
1381;DHT22;684;48.342;10.096;2023-11-19T01:50:54;8.60;38.10
1381;DHT22;684;48.342;10.096;2023-11-19T01:53:21;8.60;38.00
1381;DHT22;684;48.342;10.096;2023-11-19T01:55:48;8.60;37.90
1381;DHT22;684;48.342;10.096;2023-11-19T01:58:16;8.60;38.10
1381;DHT22;684;48.342;10.096;2023-11-19T02:00:44;8.60;38.10
1381;DHT22;684;48.342;10.096;2023-11-19T02:03:12;8.60;38.00
1381;DHT22;684;48.342;10.096;2023-11-19T02:05:41;8.70;38.10
1381;DHT22;684;48.342;10.096;2023-11-19T02:08:08;8.70;38.20
1381;DHT22;684;48.342;10.096;2023-11-19T02:10:35;8.70;38.10
1381;DHT22;684;48.342;10.096;2023-11-19T02:13:02;8.70;38.30
1381;DHT22;684;48.342;10.096;2023-11-19T02:15:30;8.80;38.00
1381;DHT22;684;48.342;10.096;2023-11-19T02:17:57;8.80;38.20
1381;DHT22;684;48.342;10.096;2023-11-19T02:20:44;8.80;38.20
1381;DHT22;684;48.342;10.096;2023-11-19T02:23:12;8.80;38.30
1381;DHT22;684;48.342;10.096;2023-11-19T02:25:40;8.80;38.30
1381;DHT22;684;48.342;10.096;2023-11-19T02:28:09;8.80;38.30
1381;DHT22;684;48.342;10.096;2023-11-19T02:30:37;8.90;38.50
1381;DHT22;684;48.342;10.096;2023-11-19T02:33:04;8.90;38.40
1381;DHT22;684;48.342;10.096;2023-11-19T02:35:32;8.90;38.70
1381;DHT22;684;48.342;10.096;2023-11-19T02:37:59;8.90;38.60
1381;DHT22;684;48.342;10.096;2023-11-19T02:40:29;8.90;38.70
1381;DHT22;684;48.342;10.096;2023-11-19T02:42:56;8.90;38.70
1381;DHT22;684;48.342;10.096;2023-11-19T02:45:25;8.90;38.80
1381;DHT22;684;48.342;10.096;2023-11-19T02:47:52;8.90;38.90
1381;DHT22;684;48.342;10.096;2023-11-19T02:50:20;8.90;38.90
1381;DHT22;684;48.342;10.096;2023-11-19T02:52:51;8.90;39.00
1381;DHT22;684;48.342;10.096;2023-11-19T02:55:18;9.00;38.90
1381;DHT22;684;48.342;10.096;2023-11-19T02:57:45;9.00;39.10
1381;DHT22;684;48.342;10.096;2023-11-19T03:00:15;9.00;39.10
1381;DHT22;684;48.342;10.096;2023-11-19T03:02:44;9.00;39.00
1381;DHT22;684;48.342;10.096;2023-11-19T03:05:12;9.00;39.00
1381;DHT22;684;48.342;10.096;2023-11-19T03:07:41;9.00;39.10
1381;DHT22;684;48.342;10.096;2023-11-19T03:10:09;9.10;39.20
1381;DHT22;684;48.342;10.096;2023-11-19T03:12:39;9.10;39.30
1381;DHT22;684;48.342;10.096;2023-11-19T03:15:07;9.10;39.40
1381;DHT22;684;48.342;10.096;2023-11-19T03:17:35;9.10;39.20
1381;DHT22;684;48.342;10.096;2023-11-19T03:20:05;9.20;39.20
1381;DHT22;684;48.342;10.096;2023-11-19T03:22:32;9.20;39.40
1381;DHT22;684;48.342;10.096;2023-11-19T03:25:00;9.20;39.30
1381;DHT22;684;48.342;10.096;2023-11-19T03:27:27;9.20;39.40
1381;DHT22;684;48.342;10.096;2023-11-19T03:29:53;9.20;39.40
1381;DHT22;684;48.342;10.096;2023-11-19T03:32:20;9.30;39.50
1381;DHT22;684;48.342;10.096;2023-11-19T03:34:47;9.30;39.50
1381;DHT22;684;48.342;10.096;2023-11-19T03:37:15;9.30;39.50
1381;DHT22;684;48.342;10.096;2023-11-19T03:39:43;9.30;39.60
1381;DHT22;684;48.342;10.096;2023-11-19T03:42:09;9.30;39.60
1381;DHT22;684;48.342;10.096;2023-11-19T03:44:38;9.40;39.60
1381;DHT22;684;48.342;10.096;2023-11-19T03:47:05;9.40;39.70
1381;DHT22;684;48.342;10.096;2023-11-19T03:49:32;9.40;39.60
1381;DHT22;684;48.342;10.096;2023-11-19T03:51:59;9.40;39.70
1381;DHT22;684;48.342;10.096;2023-11-19T03:54:27;9.40;39.80
1381;DHT22;684;48.342;10.096;2023-11-19T03:56:54;9.40;39.70
1381;DHT22;684;48.342;10.096;2023-11-19T03:59:21;9.40;39.80
1381;DHT22;684;48.342;10.096;2023-11-19T04:01:48;9.50;39.90
1381;DHT22;684;48.342;10.096;2023-11-19T04:04:14;9.50;40.70
1381;DHT22;684;48.342;10.096;2023-11-19T04:06:41;9.50;39.90
1381;DHT22;684;48.342;10.096;2023-11-19T04:09:08;9.50;39.90
1381;DHT22;684;48.342;10.096;2023-11-19T04:11:37;9.50;39.90
1381;DHT22;684;48.342;10.096;2023-11-19T04:14:05;9.50;40.00
1381;DHT22;684;48.342;10.096;2023-11-19T04:16:32;9.60;39.90
1381;DHT22;684;48.342;10.096;2023-11-19T04:18:59;9.60;40.00
1381;DHT22;684;48.342;10.096;2023-11-19T04:21:25;9.60;39.90
1381;DHT22;684;48.342;10.096;2023-11-19T04:23:52;9.60;40.00
1381;DHT22;684;48.342;10.096;2023-11-19T04:26:19;9.60;40.00
1381;DHT22;684;48.342;10.096;2023-11-19T04:28:47;9.60;39.90
1381;DHT22;684;48.342;10.096;2023-11-19T04:31:14;9.60;40.00
1381;DHT22;684;48.342;10.096;2023-11-19T04:33:41;9.70;40.10
1381;DHT22;684;48.342;10.096;2023-11-19T04:36:09;9.70;40.00
1381;DHT22;684;48.342;10.096;2023-11-19T04:38:37;9.70;40.00
1381;DHT22;684;48.342;10.096;2023-11-19T04:41:04;9.70;40.00
1381;DHT22;684;48.342;10.096;2023-11-19T04:43:32;9.70;40.10
1381;DHT22;684;48.342;10.096;2023-11-19T04:46:00;9.70;40.00
1381;DHT22;684;48.342;10.096;2023-11-19T04:48:26;9.70;40.00
1381;DHT22;684;48.342;10.096;2023-11-19T04:50:53;9.70;40.20
1381;DHT22;684;48.342;10.096;2023-11-19T04:53:20;9.70;40.10
1381;DHT22;684;48.342;10.096;2023-11-19T04:55:47;9.70;40.00
1381;DHT22;684;48.342;10.096;2023-11-19T04:58:14;9.70;40.10
1381;DHT22;684;48.342;10.096;2023-11-19T05:00:41;9.80;40.00
1381;DHT22;684;48.342;10.096;2023-11-19T05:03:09;9.80;40.10
1381;DHT22;684;48.342;10.096;2023-11-19T05:05:35;9.80;40.20
1381;DHT22;684;48.342;10.096;2023-11-19T05:08:02;9.80;40.00
1381;DHT22;684;48.342;10.096;2023-11-19T05:10:29;9.80;40.20
1381;DHT22;684;48.342;10.096;2023-11-19T05:12:56;9.70;40.20
1381;DHT22;684;48.342;10.096;2023-11-19T05:15:23;9.80;40.30
1381;DHT22;684;48.342;10.096;2023-11-19T05:17:49;9.80;40.30
1381;DHT22;684;48.342;10.096;2023-11-19T05:20:18;9.80;40.60
1381;DHT22;684;48.342;10.096;2023-11-19T05:22:44;9.80;40.40
1381;DHT22;684;48.342;10.096;2023-11-19T05:25:11;9.80;40.30
1381;DHT22;684;48.342;10.096;2023-11-19T05:27:38;9.70;40.40
1381;DHT22;684;48.342;10.096;2023-11-19T05:30:06;9.80;40.40
1381;DHT22;684;48.342;10.096;2023-11-19T05:32:35;9.80;40.30
1381;DHT22;684;48.342;10.096;2023-11-19T05:35:03;9.80;40.30
1381;DHT22;684;48.342;10.096;2023-11-19T05:37:31;9.80;40.40
1381;DHT22;684;48.342;10.096;2023-11-19T05:40:00;9.80;40.30
1381;DHT22;684;48.342;10.096;2023-11-19T05:42:28;9.80;40.30
1381;DHT22;684;48.342;10.096;2023-11-19T05:44:55;9.80;40.30
1381;DHT22;684;48.342;10.096;2023-11-19T05:47:23;9.80;40.30
1381;DHT22;684;48.342;10.096;2023-11-19T05:49:50;9.80;40.30
1381;DHT22;684;48.342;10.096;2023-11-19T05:52:16;9.80;40.30
1381;DHT22;684;48.342;10.096;2023-11-19T05:54:44;9.80;40.30
1381;DHT22;684;48.342;10.096;2023-11-19T05:57:13;9.80;40.20
1381;DHT22;684;48.342;10.096;2023-11-19T05:59:45;9.80;40.30
1381;DHT22;684;48.342;10.096;2023-11-19T06:02:12;9.80;40.40
1381;DHT22;684;48.342;10.096;2023-11-19T06:04:39;9.90;40.40
1381;DHT22;684;48.342;10.096;2023-11-19T06:07:07;9.80;40.40
1381;DHT22;684;48.342;10.096;2023-11-19T06:09:33;9.90;40.50
1381;DHT22;684;48.342;10.096;2023-11-19T06:12:02;9.90;40.40
1381;DHT22;684;48.342;10.096;2023-11-19T06:14:29;9.80;40.60
1381;DHT22;684;48.342;10.096;2023-11-19T06:16:56;9.90;40.40
1381;DHT22;684;48.342;10.096;2023-11-19T06:19:22;9.90;40.40
1381;DHT22;684;48.342;10.096;2023-11-19T06:21:50;9.90;40.30
1381;DHT22;684;48.342;10.096;2023-11-19T06:24:17;9.90;40.40
1381;DHT22;684;48.342;10.096;2023-11-19T06:26:43;9.90;40.40
1381;DHT22;684;48.342;10.096;2023-11-19T06:29:11;9.90;40.40
1381;DHT22;684;48.342;10.096;2023-11-19T06:31:43;9.90;40.30
1381;DHT22;684;48.342;10.096;2023-11-19T06:34:10;9.90;40.30
1381;DHT22;684;48.342;10.096;2023-11-19T06:36:37;10.00;40.20
1381;DHT22;684;48.342;10.096;2023-11-19T06:39:04;10.00;40.20
1381;DHT22;684;48.342;10.096;2023-11-19T06:41:31;10.00;40.10
1381;DHT22;684;48.342;10.096;2023-11-19T06:43:58;10.00;40.20
1381;DHT22;684;48.342;10.096;2023-11-19T06:46:26;10.10;40.10
1381;DHT22;684;48.342;10.096;2023-11-19T06:48:53;10.10;40.00
1381;DHT22;684;48.342;10.096;2023-11-19T06:51:22;10.10;39.90
1381;DHT22;684;48.342;10.096;2023-11-19T06:53:49;10.20;40.00
1381;DHT22;684;48.342;10.096;2023-11-19T06:56:20;10.20;40.00
1381;DHT22;684;48.342;10.096;2023-11-19T06:58:47;10.20;40.00
1381;DHT22;684;48.342;10.096;2023-11-19T07:01:14;10.20;39.90
1381;DHT22;684;48.342;10.096;2023-11-19T07:03:43;10.20;40.00
1381;DHT22;684;48.342;10.096;2023-11-19T07:06:10;10.30;40.00
1381;DHT22;684;48.342;10.096;2023-11-19T07:08:38;10.30;40.10
1381;DHT22;684;48.342;10.096;2023-11-19T07:11:05;10.30;40.00
1381;DHT22;684;48.342;10.096;2023-11-19T07:13:32;10.40;40.10
1381;DHT22;684;48.342;10.096;2023-11-19T07:15:58;10.40;40.10
1381;DHT22;684;48.342;10.096;2023-11-19T07:18:25;10.40;40.20
1381;DHT22;684;48.342;10.096;2023-11-19T07:20:53;10.40;40.20
1381;DHT22;684;48.342;10.096;2023-11-19T07:23:20;10.40;40.30
1381;DHT22;684;48.342;10.096;2023-11-19T07:25:47;10.50;40.40
1381;DHT22;684;48.342;10.096;2023-11-19T07:28:16;10.50;40.40
1381;DHT22;684;48.342;10.096;2023-11-19T07:30:43;10.50;40.50
1381;DHT22;684;48.342;10.096;2023-11-19T07:33:09;10.60;40.40
1381;DHT22;684;48.342;10.096;2023-11-19T07:35:37;10.60;40.50
1381;DHT22;684;48.342;10.096;2023-11-19T07:38:06;10.60;40.60
1381;DHT22;684;48.342;10.096;2023-11-19T07:40:33;10.70;40.70
1381;DHT22;684;48.342;10.096;2023-11-19T07:43:00;10.70;40.50
1381;DHT22;684;48.342;10.096;2023-11-19T07:45:26;10.80;40.50
1381;DHT22;684;48.342;10.096;2023-11-19T07:47:53;10.90;40.50
1381;DHT22;684;48.342;10.096;2023-11-19T07:50:21;10.90;40.40
1381;DHT22;684;48.342;10.096;2023-11-19T07:52:47;11.00;40.20
1381;DHT22;684;48.342;10.096;2023-11-19T07:55:16;11.00;40.20
1381;DHT22;684;48.342;10.096;2023-11-19T07:57:42;11.00;40.20
1381;DHT22;684;48.342;10.096;2023-11-19T08:00:10;11.10;40.10
1381;DHT22;684;48.342;10.096;2023-11-19T08:02:38;11.10;40.10
1381;DHT22;684;48.342;10.096;2023-11-19T08:05:05;11.10;40.10
1381;DHT22;684;48.342;10.096;2023-11-19T08:07:32;11.20;40.10
1381;DHT22;684;48.342;10.096;2023-11-19T08:09:59;11.20;39.80
1381;DHT22;684;48.342;10.096;2023-11-19T08:12:28;11.30;39.90
1381;DHT22;684;48.342;10.096;2023-11-19T08:14:54;11.30;39.90
1381;DHT22;684;48.342;10.096;2023-11-19T08:17:21;11.30;39.80
1381;DHT22;684;48.342;10.096;2023-11-19T08:19:48;11.30;39.70
1381;DHT22;684;48.342;10.096;2023-11-19T08:22:15;11.30;39.90
1381;DHT22;684;48.342;10.096;2023-11-19T08:24:43;11.40;39.90
1381;DHT22;684;48.342;10.096;2023-11-19T08:27:10;11.40;39.90
1381;DHT22;684;48.342;10.096;2023-11-19T08:29:38;11.50;39.80
1381;DHT22;684;48.342;10.096;2023-11-19T08:32:06;11.50;39.70
1381;DHT22;684;48.342;10.096;2023-11-19T08:34:32;11.60;39.50
1381;DHT22;684;48.342;10.096;2023-11-19T08:37:00;11.60;39.30
1381;DHT22;684;48.342;10.096;2023-11-19T08:39:26;11.60;39.50
1381;DHT22;684;48.342;10.096;2023-11-19T08:41:53;11.60;39.40
1381;DHT22;684;48.342;10.096;2023-11-19T08:44:21;11.60;39.60
1381;DHT22;684;48.342;10.096;2023-11-19T08:46:50;11.60;39.50
1381;DHT22;684;48.342;10.096;2023-11-19T08:49:17;11.70;39.50
1381;DHT22;684;48.342;10.096;2023-11-19T08:51:43;11.70;39.60
1381;DHT22;684;48.342;10.096;2023-11-19T08:54:10;11.60;39.50
1381;DHT22;684;48.342;10.096;2023-11-19T08:56:38;11.70;39.60
1381;DHT22;684;48.342;10.096;2023-11-19T08:59:05;11.70;39.60
1381;DHT22;684;48.342;10.096;2023-11-19T09:01:31;11.70;39.60
1381;DHT22;684;48.342;10.096;2023-11-19T09:03:59;11.80;39.80
1381;DHT22;684;48.342;10.096;2023-11-19T09:06:26;11.80;39.70
1381;DHT22;684;48.342;10.096;2023-11-19T09:08:53;12.00;39.70
1381;DHT22;684;48.342;10.096;2023-11-19T09:11:23;12.10;39.40
1381;DHT22;684;48.342;10.096;2023-11-19T09:13:50;12.30;39.10
1381;DHT22;684;48.342;10.096;2023-11-19T09:16:17;12.40;38.60
1381;DHT22;684;48.342;10.096;2023-11-19T09:18:44;12.50;38.40
1381;DHT22;684;48.342;10.096;2023-11-19T09:21:12;12.60;38.80
1381;DHT22;684;48.342;10.096;2023-11-19T09:23:38;12.60;38.30
1381;DHT22;684;48.342;10.096;2023-11-19T09:26:06;12.70;38.00
1381;DHT22;684;48.342;10.096;2023-11-19T09:28:35;12.70;37.90
1381;DHT22;684;48.342;10.096;2023-11-19T09:31:02;12.70;38.10
1381;DHT22;684;48.342;10.096;2023-11-19T09:33:30;13.00;38.60
1381;DHT22;684;48.342;10.096;2023-11-19T09:35:57;13.60;38.10
1381;DHT22;684;48.342;10.096;2023-11-19T09:38:25;14.10;35.40
1381;DHT22;684;48.342;10.096;2023-11-19T09:40:52;14.00;34.90
1381;DHT22;684;48.342;10.096;2023-11-19T09:43:19;14.10;35.50
1381;DHT22;684;48.342;10.096;2023-11-19T09:45:48;14.40;34.40
1381;DHT22;684;48.342;10.096;2023-11-19T09:48:16;14.40;33.90
1381;DHT22;684;48.342;10.096;2023-11-19T09:50:44;14.30;33.80
1381;DHT22;684;48.342;10.096;2023-11-19T09:53:12;14.20;34.00
1381;DHT22;684;48.342;10.096;2023-11-19T09:55:41;14.20;34.20
1381;DHT22;684;48.342;10.096;2023-11-19T09:58:08;14.10;34.80
1381;DHT22;684;48.342;10.096;2023-11-19T10:00:36;14.10;34.60
1381;DHT22;684;48.342;10.096;2023-11-19T10:03:04;14.10;34.60
1381;DHT22;684;48.342;10.096;2023-11-19T10:05:33;14.00;34.80
1381;DHT22;684;48.342;10.096;2023-11-19T10:08:01;14.00;35.00
1381;DHT22;684;48.342;10.096;2023-11-19T10:10:28;14.00;34.90
1381;DHT22;684;48.342;10.096;2023-11-19T10:12:56;14.00;35.10
1381;DHT22;684;48.342;10.096;2023-11-19T10:15:26;13.90;35.30
1381;DHT22;684;48.342;10.096;2023-11-19T10:17:56;13.90;35.40
1381;DHT22;684;48.342;10.096;2023-11-19T10:20:23;13.80;35.70
1381;DHT22;684;48.342;10.096;2023-11-19T10:22:52;13.70;35.80
1381;DHT22;684;48.342;10.096;2023-11-19T10:25:23;13.70;36.20
1381;DHT22;684;48.342;10.096;2023-11-19T10:27:51;13.80;36.20
1381;DHT22;684;48.342;10.096;2023-11-19T10:30:20;13.80;36.10
1381;DHT22;684;48.342;10.096;2023-11-19T10:33:03;13.90;36.00
1381;DHT22;684;48.342;10.096;2023-11-19T10:35:30;13.90;36.20
1381;DHT22;684;48.342;10.096;2023-11-19T10:37:59;13.90;36.00
1381;DHT22;684;48.342;10.096;2023-11-19T10:40:38;13.80;36.00
1381;DHT22;684;48.342;10.096;2023-11-19T10:43:06;13.80;36.30
1381;DHT22;684;48.342;10.096;2023-11-19T10:45:35;13.90;36.40
1381;DHT22;684;48.342;10.096;2023-11-19T10:48:03;14.00;36.40
1381;DHT22;684;48.342;10.096;2023-11-19T10:50:32;14.20;36.20
1381;DHT22;684;48.342;10.096;2023-11-19T10:52:59;14.30;36.10
1381;DHT22;684;48.342;10.096;2023-11-19T10:55:28;14.40;35.80
1381;DHT22;684;48.342;10.096;2023-11-19T10:57:59;14.50;35.50
1381;DHT22;684;48.342;10.096;2023-11-19T11:00:28;14.60;35.20
1381;DHT22;684;48.342;10.096;2023-11-19T11:03:01;14.70;35.00
1381;DHT22;684;48.342;10.096;2023-11-19T11:05:29;14.90;35.50
1381;DHT22;684;48.342;10.096;2023-11-19T11:08:00;15.30;35.50
1381;DHT22;684;48.342;10.096;2023-11-19T11:10:28;15.60;33.80
1381;DHT22;684;48.342;10.096;2023-11-19T11:12:59;15.70;33.00
1381;DHT22;684;48.342;10.096;2023-11-19T11:15:30;16.00;32.70
1381;DHT22;684;48.342;10.096;2023-11-19T11:18:00;16.00;31.20
1381;DHT22;684;48.342;10.096;2023-11-19T11:20:29;15.90;31.20
1381;DHT22;684;48.342;10.096;2023-11-19T11:23:09;16.00;32.30
1381;DHT22;684;48.342;10.096;2023-11-19T11:25:47;16.30;31.90
1381;DHT22;684;48.342;10.096;2023-11-19T11:28:24;16.60;30.80
1381;DHT22;684;48.342;10.096;2023-11-19T11:31:11;16.60;29.10
1381;DHT22;684;48.342;10.096;2023-11-19T11:33:59;16.50;29.20
1381;DHT22;684;48.342;10.096;2023-11-19T11:36:30;16.50;29.60
1381;DHT22;684;48.342;10.096;2023-11-19T11:38:58;16.70;30.20
1381;DHT22;684;48.342;10.096;2023-11-19T11:41:26;16.90;28.90
1381;DHT22;684;48.342;10.096;2023-11-19T11:43:54;17.20;28.10
1381;DHT22;684;48.342;10.096;2023-11-19T11:46:56;17.20;26.80
1381;DHT22;684;48.342;10.096;2023-11-19T11:49:28;17.40;26.70
1381;DHT22;684;48.342;10.096;2023-11-19T11:52:03;17.70;27.50
1381;DHT22;684;48.342;10.096;2023-11-19T11:54:31;18.20;24.60
1381;DHT22;684;48.342;10.096;2023-11-19T11:57:06;18.30;24.10
1381;DHT22;684;48.342;10.096;2023-11-19T11:59:42;18.00;23.30
1381;DHT22;684;48.342;10.096;2023-11-19T12:02:10;17.90;24.10
1381;DHT22;684;48.342;10.096;2023-11-19T12:04:39;17.80;23.80
1381;DHT22;684;48.342;10.096;2023-11-19T12:07:08;17.80;24.00
1381;DHT22;684;48.342;10.096;2023-11-19T12:09:36;18.30;23.50
1381;DHT22;684;48.342;10.096;2023-11-19T12:12:26;18.30;22.40
1381;DHT22;684;48.342;10.096;2023-11-19T12:15:01;18.30;22.30
1381;DHT22;684;48.342;10.096;2023-11-19T12:17:41;18.00;22.00
1381;DHT22;684;48.342;10.096;2023-11-19T12:20:11;17.80;22.10
1381;DHT22;684;48.342;10.096;2023-11-19T12:22:39;17.60;22.20
1381;DHT22;684;48.342;10.096;2023-11-19T12:25:07;17.50;22.60
1381;DHT22;684;48.342;10.096;2023-11-19T12:27:34;17.40;23.60
1381;DHT22;684;48.342;10.096;2023-11-19T12:30:01;17.60;23.40
1381;DHT22;684;48.342;10.096;2023-11-19T12:32:37;17.70;22.70
1381;DHT22;684;48.342;10.096;2023-11-19T12:35:05;17.70;22.70
1381;DHT22;684;48.342;10.096;2023-11-19T12:37:33;17.60;22.50
1381;DHT22;684;48.342;10.096;2023-11-19T12:40:01;17.50;23.00
1381;DHT22;684;48.342;10.096;2023-11-19T12:42:37;17.50;23.30
1381;DHT22;684;48.342;10.096;2023-11-19T12:45:06;17.40;23.40
1381;DHT22;684;48.342;10.096;2023-11-19T12:47:33;17.30;23.50
1381;DHT22;684;48.342;10.096;2023-11-19T12:50:00;17.30;23.80
1381;DHT22;684;48.342;10.096;2023-11-19T12:52:27;17.30;23.60
1381;DHT22;684;48.342;10.096;2023-11-19T12:54:55;17.30;23.70
1381;DHT22;684;48.342;10.096;2023-11-19T12:57:36;17.20;23.50
1381;DHT22;684;48.342;10.096;2023-11-19T13:00:04;17.10;24.50
1381;DHT22;684;48.342;10.096;2023-11-19T13:02:50;17.10;24.30
1381;DHT22;684;48.342;10.096;2023-11-19T13:05:27;17.10;24.30
1381;DHT22;684;48.342;10.096;2023-11-19T13:08:00;17.20;24.30
1381;DHT22;684;48.342;10.096;2023-11-19T13:10:30;17.20;23.70
1381;DHT22;684;48.342;10.096;2023-11-19T13:13:01;17.10;22.80
1381;DHT22;684;48.342;10.096;2023-11-19T13:15:29;16.90;23.40
1381;DHT22;684;48.342;10.096;2023-11-19T13:17:56;16.70;23.60
1381;DHT22;684;48.342;10.096;2023-11-19T13:20:22;16.50;24.50
1381;DHT22;684;48.342;10.096;2023-11-19T13:23:00;16.40;25.40
1381;DHT22;684;48.342;10.096;2023-11-19T13:25:29;16.30;26.00
1381;DHT22;684;48.342;10.096;2023-11-19T13:27:56;16.10;26.20
1381;DHT22;684;48.342;10.096;2023-11-19T13:30:24;16.10;26.60
1381;DHT22;684;48.342;10.096;2023-11-19T13:32:51;16.00;26.90
1381;DHT22;684;48.342;10.096;2023-11-19T13:35:20;15.90;27.00
1381;DHT22;684;48.342;10.096;2023-11-19T13:37:47;15.80;27.20
1381;DHT22;684;48.342;10.096;2023-11-19T13:40:14;15.80;27.40
1381;DHT22;684;48.342;10.096;2023-11-19T13:42:42;15.70;27.70
1381;DHT22;684;48.342;10.096;2023-11-19T13:45:10;15.60;28.00
1381;DHT22;684;48.342;10.096;2023-11-19T13:47:38;15.60;27.90
1381;DHT22;684;48.342;10.096;2023-11-19T13:50:08;15.50;27.80
1381;DHT22;684;48.342;10.096;2023-11-19T13:52:36;15.50;28.10
1381;DHT22;684;48.342;10.096;2023-11-19T13:55:06;15.40;28.10
1381;DHT22;684;48.342;10.096;2023-11-19T13:57:33;15.40;28.50
1381;DHT22;684;48.342;10.096;2023-11-19T14:00:02;15.30;28.60
1381;DHT22;684;48.342;10.096;2023-11-19T14:02:32;15.30;29.00
1381;DHT22;684;48.342;10.096;2023-11-19T14:04:59;15.30;28.80
1381;DHT22;684;48.342;10.096;2023-11-19T14:07:26;15.30;28.60
1381;DHT22;684;48.342;10.096;2023-11-19T14:09:53;15.20;28.70
1381;DHT22;684;48.342;10.096;2023-11-19T14:12:20;15.20;29.10
1381;DHT22;684;48.342;10.096;2023-11-19T14:14:47;15.20;29.10
1381;DHT22;684;48.342;10.096;2023-11-19T14:17:16;15.20;28.80
1381;DHT22;684;48.342;10.096;2023-11-19T14:19:42;15.20;28.80
1381;DHT22;684;48.342;10.096;2023-11-19T14:22:09;15.20;28.50
1381;DHT22;684;48.342;10.096;2023-11-19T14:24:36;15.20;28.50
1381;DHT22;684;48.342;10.096;2023-11-19T14:27:04;15.10;28.50
1381;DHT22;684;48.342;10.096;2023-11-19T14:29:31;15.00;28.40
1381;DHT22;684;48.342;10.096;2023-11-19T14:31:57;15.00;28.70
1381;DHT22;684;48.342;10.096;2023-11-19T14:34:26;14.90;29.00
1381;DHT22;684;48.342;10.096;2023-11-19T14:36:53;14.80;29.20
1381;DHT22;684;48.342;10.096;2023-11-19T14:39:20;14.80;29.30
1381;DHT22;684;48.342;10.096;2023-11-19T14:41:47;14.80;29.60
1381;DHT22;684;48.342;10.096;2023-11-19T14:44:15;14.70;29.60
1381;DHT22;684;48.342;10.096;2023-11-19T14:46:41;14.70;30.00
1381;DHT22;684;48.342;10.096;2023-11-19T14:49:08;14.70;30.10
1381;DHT22;684;48.342;10.096;2023-11-19T14:51:37;14.60;30.20
1381;DHT22;684;48.342;10.096;2023-11-19T14:54:04;14.50;30.20
1381;DHT22;684;48.342;10.096;2023-11-19T14:56:31;14.50;30.40
1381;DHT22;684;48.342;10.096;2023-11-19T14:58:58;14.50;30.60
1381;DHT22;684;48.342;10.096;2023-11-19T15:01:25;14.40;30.60
1381;DHT22;684;48.342;10.096;2023-11-19T15:03:54;14.30;30.90
1381;DHT22;684;48.342;10.096;2023-11-19T15:06:23;14.30;31.10
1381;DHT22;684;48.342;10.096;2023-11-19T15:08:51;14.20;31.20
1381;DHT22;684;48.342;10.096;2023-11-19T15:11:18;14.20;31.40
1381;DHT22;684;48.342;10.096;2023-11-19T15:13:45;14.20;31.60
1381;DHT22;684;48.342;10.096;2023-11-19T15:16:12;14.10;31.60
1381;DHT22;684;48.342;10.096;2023-11-19T15:18:40;14.00;31.90
1381;DHT22;684;48.342;10.096;2023-11-19T15:21:06;14.00;31.90
1381;DHT22;684;48.342;10.096;2023-11-19T15:23:34;13.90;32.10
1381;DHT22;684;48.342;10.096;2023-11-19T15:26:03;13.90;32.30
1381;DHT22;684;48.342;10.096;2023-11-19T15:28:32;13.90;32.40
1381;DHT22;684;48.342;10.096;2023-11-19T15:30:58;13.80;32.50
1381;DHT22;684;48.342;10.096;2023-11-19T15:33:25;13.80;32.80
1381;DHT22;684;48.342;10.096;2023-11-19T15:35:53;13.70;32.90
1381;DHT22;684;48.342;10.096;2023-11-19T15:38:19;13.60;33.10
1381;DHT22;684;48.342;10.096;2023-11-19T15:40:46;13.60;33.40
1381;DHT22;684;48.342;10.096;2023-11-19T15:43:14;13.60;33.40
1381;DHT22;684;48.342;10.096;2023-11-19T15:45:41;13.60;33.70
1381;DHT22;684;48.342;10.096;2023-11-19T15:48:08;13.50;34.00
1381;DHT22;684;48.342;10.096;2023-11-19T15:50:34;13.50;34.10
1381;DHT22;684;48.342;10.096;2023-11-19T15:53:01;13.40;34.20
1381;DHT22;684;48.342;10.096;2023-11-19T15:55:28;13.40;34.40
1381;DHT22;684;48.342;10.096;2023-11-19T15:57:55;13.40;34.50
1381;DHT22;684;48.342;10.096;2023-11-19T16:00:23;13.30;34.70
1381;DHT22;684;48.342;10.096;2023-11-19T16:02:49;13.30;34.80
1381;DHT22;684;48.342;10.096;2023-11-19T16:05:16;13.30;34.90
1381;DHT22;684;48.342;10.096;2023-11-19T16:07:43;13.20;35.00
1381;DHT22;684;48.342;10.096;2023-11-19T16:10:10;13.20;35.10
1381;DHT22;684;48.342;10.096;2023-11-19T16:12:38;13.20;35.30
1381;DHT22;684;48.342;10.096;2023-11-19T16:15:06;13.10;35.40